Time;durP1;ratioP1;P1;durP2;ratioP2;P2;SDS_P1;SDS_P2;PMS_P1;PMS_P2;Temp;Humidity;BMP_temperature;BMP_pressure;BME280_temperature;BME280_humidity;BME280_pressure;Samples;Min_cycle;Max_cycle;Signal;HPM_P1;HPM_P2
2023/04/11 00:00:18;;;;;;;0.60;0.60;;;;;;;9.95;100.00;99088.31;5029186;28;20720;-60
2023/04/11 00:02:45;;;;;;;0.47;0.47;;;;;;;9.93;100.00;99084.94;5031986;28;20229;-60
2023/04/11 00:05:12;;;;;;;0.60;0.60;;;;;;;9.81;100.00;99085.34;5036051;28;20201;-61
2023/04/11 00:07:40;;;;;;;0.70;0.70;;;;;;;9.68;100.00;99078.94;5036625;28;20201;-60
2023/04/11 00:10:08;;;;;;;0.50;0.50;;;;;;;9.80;100.00;99094.75;5036330;28;20193;-60
2023/04/11 00:12:35;;;;;;;0.60;0.60;;;;;;;9.78;100.00;99090.56;5036923;28;20666;-60
2023/04/11 00:15:02;;;;;;;0.50;0.50;;;;;;;9.75;100.00;99080.44;5036601;28;20673;-60
2023/04/11 00:17:30;;;;;;;0.50;0.50;;;;;;;9.68;100.00;99073.81;5033680;28;20205;-60
2023/04/11 00:20:00;;;;;;;0.50;0.50;;;;;;;9.64;100.00;99075.66;5033017;28;20248;-59
2023/04/11 00:22:27;;;;;;;1.07;0.97;;;;;;;9.61;100.00;99070.63;5032775;28;20193;-60
2023/04/11 00:24:55;;;;;;;0.60;0.60;;;;;;;9.62;100.00;99074.03;5033289;28;20229;-60
2023/04/11 00:27:22;;;;;;;0.50;0.50;;;;;;;9.61;100.00;99072.34;5032903;28;20201;-60
2023/04/11 00:29:49;;;;;;;0.70;0.70;;;;;;;9.52;100.00;99062.41;5033135;28;20194;-60
2023/04/11 00:32:16;;;;;;;0.50;0.50;;;;;;;9.57;100.00;99066.47;5033113;28;20197;-60
2023/04/11 00:34:43;;;;;;;0.67;0.67;;;;;;;9.59;100.00;99071.56;5033177;28;20205;-60
2023/04/11 00:37:11;;;;;;;0.43;0.43;;;;;;;9.61;100.00;99078.31;5032909;28;20206;-60
2023/04/11 00:39:38;;;;;;;0.40;0.40;;;;;;;9.61;100.00;99078.31;5031653;28;20308;-60
2023/04/11 00:42:09;;;;;;;0.57;0.57;;;;;;;9.66;100.00;99070.50;5032572;28;20224;-60
2023/04/11 00:44:39;;;;;;;0.70;0.70;;;;;;;9.67;100.00;99067.03;5028731;28;20681;-60
2023/04/11 00:47:07;;;;;;;0.73;0.73;;;;;;;9.65;100.00;99058.56;5028566;28;20236;-60
2023/04/11 00:49:34;;;;;;;0.87;0.87;;;;;;;9.69;100.00;99066.13;5032066;28;20210;-60
2023/04/11 00:52:02;;;;;;;0.50;0.50;;;;;;;9.69;100.00;99071.22;5031620;28;20212;-60
2023/04/11 00:54:30;;;;;;;0.70;0.70;;;;;;;9.71;100.00;99074.56;5030238;28;20670;-59
2023/04/11 00:56:58;;;;;;;0.40;0.40;;;;;;;9.76;100.00;99071.84;5029790;28;20204;-60
2023/04/11 00:59:28;;;;;;;0.47;0.47;;;;;;;9.76;100.00;99067.56;5031443;28;20240;-60
2023/04/11 01:01:54;;;;;;;0.40;0.40;;;;;;;9.75;100.00;99075.31;5031380;28;20731;-60
2023/04/11 01:04:22;;;;;;;0.60;0.60;;;;;;;9.75;100.00;99071.03;5020254;28;20252;-60
2023/04/11 01:06:54;;;;;;;0.67;0.67;;;;;;;9.70;100.00;99077.16;5016457;28;20272;-61
2023/04/11 01:09:23;;;;;;;0.57;0.57;;;;;;;9.69;100.00;99073.78;5028680;28;20763;-60
2023/04/11 01:11:51;;;;;;;0.60;0.60;;;;;;;9.62;100.00;99064.63;5017219;28;20194;-59
2023/04/11 01:14:19;;;;;;;0.50;0.50;;;;;;;9.66;100.00;99078.97;5030735;28;20723;-60
2023/04/11 01:16:49;;;;;;;0.40;0.40;;;;;;;9.71;100.00;99073.72;5021290;28;20260;-60
2023/04/11 01:19:19;;;;;;;0.43;0.43;;;;;;;9.74;100.00;99065.94;5019172;28;20228;-60
2023/04/11 01:21:48;;;;;;;0.50;0.50;;;;;;;9.75;100.00;99062.50;5017701;28;20210;-59
2023/04/11 01:24:16;;;;;;;0.50;0.50;;;;;;;9.76;100.00;99069.28;5016865;28;20202;-60
2023/04/11 01:26:43;;;;;;;0.60;0.60;;;;;;;9.76;100.00;99066.72;5026696;28;20213;-60
2023/04/11 01:29:10;;;;;;;0.50;0.50;;;;;;;9.76;100.00;99061.59;5022159;28;20212;-60
2023/04/11 01:31:40;;;;;;;0.50;0.50;;;;;;;9.77;100.00;99060.72;5022823;28;20197;-60
2023/04/11 01:34:11;;;;;;;0.60;0.60;;;;;;;9.76;100.00;99051.38;5022359;28;20669;-60
2023/04/11 01:36:38;;;;;;;0.60;0.60;;;;;;;9.72;100.00;99060.91;5017359;28;20202;-60
2023/04/11 01:39:05;;;;;;;0.60;0.60;;;;;;;9.75;100.00;99054.84;5020859;28;20688;-61
2023/04/11 01:41:34;;;;;;;0.83;0.83;;;;;;;9.79;100.00;99053.84;5020997;28;20213;-59
2023/04/11 01:44:01;;;;;;;0.70;0.70;;;;;;;9.80;100.00;99056.34;5019596;28;20678;-60
2023/04/11 01:46:28;;;;;;;0.50;0.50;;;;;;;9.84;100.00;99055.38;5014669;28;20562;-60
2023/04/11 01:48:56;;;;;;;0.80;0.80;;;;;;;9.83;100.00;99050.28;5024494;28;20193;-60
2023/04/11 01:51:22;;;;;;;0.57;0.57;;;;;;;9.82;100.00;99038.41;5016012;28;20206;-59
2023/04/11 01:53:49;;;;;;;0.50;0.50;;;;;;;9.81;100.00;99040.13;5018817;28;20202;-60
2023/04/11 01:56:16;;;;;;;0.80;0.80;;;;;;;9.79;100.00;99034.19;5023770;28;20208;-60
2023/04/11 01:58:44;;;;;;;0.50;0.50;;;;;;;9.78;100.00;99039.38;5027922;28;20609;-59
2023/04/11 02:01:12;;;;;;;0.53;0.53;;;;;;;9.80;100.00;99037.59;5016584;28;20198;-60
2023/04/11 02:03:39;;;;;;;0.40;0.40;;;;;;;9.79;100.00;99041.06;5025660;28;20226;-60
2023/04/11 02:06:06;;;;;;;0.60;0.60;;;;;;;9.77;100.00;99038.53;5019764;28;20213;-60
2023/04/11 02:08:33;;;;;;;0.80;0.80;;;;;;;9.68;100.00;99028.59;5021528;28;20208;-59
2023/04/11 02:10:59;;;;;;;0.70;0.70;;;;;;;9.71;100.00;99030.22;5025586;28;20209;-59
2023/04/11 02:13:26;;;;;;;0.60;0.60;;;;;;;9.70;100.00;99025.97;5020753;28;20209;-60
2023/04/11 02:15:54;;;;;;;0.60;0.60;;;;;;;9.66;100.00;99034.66;5021987;28;20198;-60
2023/04/11 02:18:21;;;;;;;0.70;0.70;;;;;;;9.65;100.00;99033.81;5023088;28;20209;-60
2023/04/11 02:20:49;;;;;;;0.70;0.70;;;;;;;9.65;100.00;99028.69;5027015;28;20218;-59
2023/04/11 02:23:15;;;;;;;0.60;0.60;;;;;;;9.61;100.00;99031.41;5027848;28;20202;-59
2023/04/11 02:25:42;;;;;;;0.60;0.60;;;;;;;9.65;100.00;99038.09;5019058;28;20527;-60
2023/04/11 02:28:09;;;;;;;0.50;0.50;;;;;;;9.67;100.00;99031.19;5020003;28;20228;-60
2023/04/11 02:30:36;;;;;;;0.70;0.70;;;;;;;9.65;100.00;99027.84;5020850;28;20198;-60
2023/04/11 02:33:04;;;;;;;0.60;0.60;;;;;;;9.59;100.00;99023.78;5021076;28;20217;-60
2023/04/11 02:35:31;;;;;;;0.57;0.57;;;;;;;9.64;100.00;99023.63;5018736;28;20685;-59
2023/04/11 02:37:58;;;;;;;0.80;0.80;;;;;;;9.67;100.00;99026.06;5023789;28;20691;-60
2023/04/11 02:40:25;;;;;;;0.73;0.73;;;;;;;9.62;100.00;99018.56;5021664;28;20228;-59
2023/04/11 02:42:52;;;;;;;0.50;0.50;;;;;;;9.61;100.00;99005.81;5018711;28;20197;-60
2023/04/11 02:45:19;;;;;;;0.50;0.50;;;;;;;9.62;100.00;99004.94;5021233;28;20315;-59
2023/04/11 02:47:46;;;;;;;0.50;0.50;;;;;;;9.61;100.00;99005.81;5017889;28;20202;-60
2023/04/11 02:50:14;;;;;;;0.70;0.70;;;;;;;9.50;100.00;98993.34;5024730;28;20205;-59
2023/04/11 02:52:41;;;;;;;0.50;0.50;;;;;;;9.57;100.00;98994.00;5020825;28;20211;-60
2023/04/11 02:55:09;;;;;;;0.50;0.50;;;;;;;9.56;100.00;98987.22;5021337;28;20206;-60
2023/04/11 02:57:35;;;;;;;0.50;0.50;;;;;;;9.52;100.00;98985.63;5017620;28;20251;-59
2023/04/11 03:00:05;;;;;;;0.67;0.67;;;;;;;9.54;100.00;98978.75;5017790;28;20217;-60
2023/04/11 03:02:32;;;;;;;0.77;0.77;;;;;;;9.53;100.00;98979.66;5019476;28;20729;-60
2023/04/11 03:05:02;;;;;;;0.53;0.53;;;;;;;9.53;100.00;98980.50;5026249;28;20217;-59
2023/04/11 03:07:30;;;;;;;1.00;1.00;;;;;;;9.54;100.00;98978.75;5017391;28;20684;-60
2023/04/11 03:09:57;;;;;;;0.50;0.50;;;;;;;9.52;100.00;98977.97;5018491;28;20197;-60
2023/04/11 03:12:25;;;;;;;1.03;1.03;;;;;;;9.45;100.00;98964.53;5021225;28;20197;-60
2023/04/11 03:14:52;;;;;;;0.70;0.70;;;;;;;9.46;100.00;98967.06;5021241;28;20202;-60
2023/04/11 03:17:18;;;;;;;0.80;0.80;;;;;;;9.48;100.00;98969.56;5018123;28;20245;-60
2023/04/11 03:19:45;;;;;;;0.70;0.70;;;;;;;9.49;100.00;98968.69;5013697;28;20217;-60
2023/04/11 03:22:12;;;;;;;0.70;0.70;;;;;;;9.43;100.00;98967.13;5012859;28;20205;-60
2023/04/11 03:24:40;;;;;;;0.70;0.70;;;;;;;9.43;100.00;98963.75;5018353;28;20198;-59
2023/04/11 03:27:07;;;;;;;0.50;0.50;;;;;;;9.37;100.00;98967.31;5020816;28;20205;-60
2023/04/11 03:29:34;;;;;;;0.43;0.43;;;;;;;9.36;100.00;98964.84;5016716;28;20692;-60
2023/04/11 03:32:00;;;;;;;0.60;0.60;;;;;;;9.31;100.00;98969.25;5018432;28;20194;-60
2023/04/11 03:34:27;;;;;;;0.40;0.40;;;;;;;9.29;100.00;98964.19;5016888;28;20581;-60
2023/04/11 03:36:54;;;;;;;0.60;0.60;;;;;;;9.29;100.00;98959.06;5023189;28;20669;-59
2023/04/11 03:39:21;;;;;;;0.50;0.50;;;;;;;9.23;100.00;98959.28;5017595;28;20674;-59
2023/04/11 03:41:49;;;;;;;0.50;0.50;;;;;;;9.27;100.00;98960.84;5019120;28;20248;-60
2023/04/11 03:44:16;;;;;;;0.50;0.50;;;;;;;9.23;100.00;98959.28;5020797;28;20201;-60
2023/04/11 03:46:43;;;;;;;0.50;0.50;;;;;;;9.14;100.00;98944.22;5026185;28;20206;-60
2023/04/11 03:49:10;;;;;;;0.50;0.50;;;;;;;9.24;100.00;98955.81;5025387;28;20213;-60
2023/04/11 03:51:36;;;;;;;0.60;0.60;;;;;;;9.23;100.00;98954.16;5022063;28;20212;-60
2023/04/11 03:54:03;;;;;;;0.57;0.57;;;;;;;9.20;100.00;98953.41;5024665;28;20200;-60
2023/04/11 03:56:32;;;;;;;1.07;0.97;;;;;;;9.22;100.00;98957.59;5029365;28;20202;-59
2023/04/11 03:59:02;;;;;;;0.60;0.60;;;;;;;9.19;100.00;98950.03;5025694;28;20201;-59
2023/04/11 04:01:28;;;;;;;0.70;0.70;;;;;;;9.16;100.00;98946.72;5027384;28;20673;-59
2023/04/11 04:03:55;;;;;;;0.80;0.80;;;;;;;9.15;100.00;98945.88;5029961;28;20229;-60
2023/04/11 04:06:22;;;;;;;0.60;0.60;;;;;;;9.15;100.00;98945.88;5033219;28;20674;-59
2023/04/11 04:08:49;;;;;;;0.50;0.50;;;;;;;9.19;100.00;98955.13;5033633;28;20677;-60
2023/04/11 04:11:15;;;;;;;0.70;0.70;;;;;;;9.20;100.00;98948.31;5033203;28;20204;-60
2023/04/11 04:13:42;;;;;;;0.60;0.60;;;;;;;9.11;100.00;98934.06;5033262;28;20209;-60
2023/04/11 04:16:11;;;;;;;0.50;0.50;;;;;;;9.18;100.00;98943.22;5033509;28;20220;-59
2023/04/11 04:18:38;;;;;;;0.60;0.60;;;;;;;9.22;100.00;98944.81;5033087;28;20209;-59
2023/04/11 04:21:07;;;;;;;0.80;0.80;;;;;;;9.24;100.00;98942.22;5032791;28;20225;-60
2023/04/11 04:23:34;;;;;;;0.50;0.50;;;;;;;9.24;100.00;98937.91;5033201;28;20263;-60
2023/04/11 04:26:02;;;;;;;0.60;0.60;;;;;;;9.31;100.00;98941.13;5032837;28;20653;-60
2023/04/11 04:28:29;;;;;;;0.50;0.50;;;;;;;9.32;100.00;98946.19;5033111;28;20213;-59
2023/04/11 04:30:57;;;;;;;0.50;0.50;;;;;;;9.34;100.00;98936.75;5032811;28;20286;-59
2023/04/11 04:33:25;;;;;;;0.60;0.60;;;;;;;9.34;100.00;98941.84;5032877;28;20205;-60
2023/04/11 04:35:56;;;;;;;0.67;0.67;;;;;;;9.40;100.00;98939.09;5032813;28;20212;-60
2023/04/11 04:38:24;;;;;;;0.60;0.60;;;;;;;9.37;100.00;98928.97;5033082;28;20203;-59
2023/04/11 04:40:53;;;;;;;0.60;0.60;;;;;;;9.44;100.00;98938.13;5032415;28;20243;-60
2023/04/11 04:43:23;;;;;;;1.23;1.23;;;;;;;9.43;100.00;98936.44;5031669;28;20206;-60
2023/04/11 04:45:50;;;;;;;0.60;0.60;;;;;;;9.40;100.00;98915.25;5032134;28;20209;-59
2023/04/11 04:48:17;;;;;;;1.70;1.13;;;;;;;9.50;100.00;98931.94;5032590;28;20255;-59
2023/04/11 04:50:45;;;;;;;1.07;1.00;;;;;;;9.52;100.00;98924.22;5031772;28;20197;-58
2023/04/11 04:53:12;;;;;;;0.70;0.70;;;;;;;9.58;100.00;98919.75;5032620;28;20233;-58
2023/04/11 04:55:38;;;;;;;0.53;0.53;;;;;;;9.61;100.00;98924.75;5033134;28;20660;-59
2023/04/11 04:58:05;;;;;;;0.50;0.50;;;;;;;9.66;100.00;98922.06;5030665;28;20465;-59
2023/04/11 05:00:33;;;;;;;0.50;0.50;;;;;;;9.67;100.00;98919.44;5032100;28;20225;-59
2023/04/11 05:02:59;;;;;;;0.50;0.50;;;;;;;9.73;100.00;98913.25;5029092;28;20323;-59
2023/04/11 05:05:28;;;;;;;0.70;0.70;;;;;;;9.77;100.00;98922.50;5022366;28;20677;-59
2023/04/11 05:07:56;;;;;;;0.60;0.60;;;;;;;9.80;100.00;98914.72;5021285;28;20658;-59
2023/04/11 05:10:23;;;;;;;0.80;0.80;;;;;;;9.86;100.00;98917.06;5019786;28;20214;-59
2023/04/11 05:12:52;;;;;;;0.50;0.50;;;;;;;9.90;100.00;98911.78;5020366;28;20210;-59
2023/04/11 05:15:21;;;;;;;0.40;0.40;;;;;;;9.95;100.00;98924.44;5020644;28;20717;-59
2023/04/11 05:17:48;;;;;;;0.57;0.57;;;;;;;10.03;100.00;98912.19;5015779;28;20208;-59
2023/04/11 05:20:15;;;;;;;0.50;0.50;;;;;;;10.10;100.00;98913.66;5018644;28;20222;-59
2023/04/11 05:22:42;;;;;;;0.40;0.40;;;;;;;10.14;100.00;98915.25;5023319;28;20555;-59
2023/04/11 05:25:10;;;;;;;0.80;0.80;;;;;;;10.25;100.00;98912.28;5021199;28;20212;-59
2023/04/11 05:27:37;;;;;;;0.60;0.60;;;;;;;10.32;100.00;98913.72;5021331;28;20198;-58
2023/04/11 05:30:04;;;;;;;0.73;0.73;;;;;;;10.39;100.00;98916.03;5024618;28;20209;-59
2023/04/11 05:32:31;;;;;;;0.70;0.70;;;;;;;10.53;100.00;98912.94;5023338;28;20205;-60
2023/04/11 05:34:58;;;;;;;0.40;0.40;;;;;;;10.65;100.00;98922.72;5022460;28;20665;-59
2023/04/11 05:37:25;;;;;;;0.50;0.50;;;;;;;10.69;100.00;98913.19;5022972;28;20292;-59
2023/04/11 05:39:52;;;;;;;0.50;0.50;;;;;;;10.77;100.00;98911.16;5019244;28;20224;-60
2023/04/11 05:42:20;;;;;;;0.40;0.40;;;;;;;10.86;100.00;98908.22;5028430;28;20228;-60
2023/04/11 05:44:46;;;;;;;0.60;0.60;;;;;;;10.94;100.00;98907.06;5020477;28;20206;-60
2023/04/11 05:47:13;;;;;;;0.50;0.50;;;;;;;10.99;100.00;98909.41;5023957;28;20205;-60
2023/04/11 05:49:40;;;;;;;0.40;0.40;;;;;;;11.02;100.00;98906.72;5020982;28;20210;-59
2023/04/11 05:52:07;;;;;;;0.57;0.57;;;;;;;11.12;99.65;98907.19;5026344;28;20197;-60
2023/04/11 05:54:35;;;;;;;0.43;0.43;;;;;;;11.18;99.01;98906.97;5026713;28;20586;-60
2023/04/11 05:57:02;;;;;;;0.53;0.53;;;;;;;11.20;98.13;98908.59;5021169;28;20202;-59
2023/04/11 05:59:31;;;;;;;0.40;0.40;;;;;;;11.23;96.66;98908.44;5022205;28;20734;-60
2023/04/11 06:01:58;;;;;;;0.50;0.50;;;;;;;11.19;96.38;98913.75;5022320;28;20222;-60
2023/04/11 06:04:25;;;;;;;0.57;0.57;;;;;;;11.23;96.56;98911.03;5020989;28;20229;-60
2023/04/11 06:06:52;;;;;;;0.50;0.50;;;;;;;11.22;96.59;98914.47;5023715;28;20558;-59
2023/04/11 06:09:19;;;;;;;0.50;0.50;;;;;;;11.26;96.12;98910.91;5024227;28;20256;-60
2023/04/11 06:11:46;;;;;;;0.43;0.43;;;;;;;11.26;95.31;98899.78;5019991;28;20193;-60
2023/04/11 06:14:13;;;;;;;0.60;0.60;;;;;;;11.26;95.15;98910.91;5025916;28;20209;-59
2023/04/11 06:16:41;;;;;;;0.50;0.50;;;;;;;11.29;95.71;98900.50;5024903;28;20259;-59
2023/04/11 06:19:08;;;;;;;0.40;0.40;;;;;;;11.36;95.17;98907.06;5024025;28;20197;-58
2023/04/11 06:21:34;;;;;;;0.60;0.60;;;;;;;11.41;95.31;98909.41;5022760;28;20222;-58
2023/04/11 06:24:04;;;;;;;0.50;0.50;;;;;;;11.43;96.02;98903.34;5018763;28;20215;-59
2023/04/11 06:26:32;;;;;;;0.70;0.70;;;;;;;11.53;95.13;98899.47;5022426;28;20201;-59
2023/04/11 06:28:59;;;;;;;0.60;0.60;;;;;;;11.57;93.29;98900.19;5025359;28;20339;-58
2023/04/11 06:31:26;;;;;;;1.80;0.87;;;;;;;11.64;92.78;98900.75;5020121;28;20215;-59
2023/04/11 06:33:54;;;;;;;0.40;0.40;;;;;;;11.69;92.33;98897.13;5024047;28;20236;-58
2023/04/11 06:36:21;;;;;;;0.50;0.50;;;;;;;11.74;92.96;98894.38;5026479;28;20213;-58
2023/04/11 06:38:49;;;;;;;0.40;0.40;;;;;;;11.80;93.28;98888.97;5022243;28;20208;-58
2023/04/11 06:41:16;;;;;;;0.70;0.70;;;;;;;11.83;93.06;98892.25;5020415;28;20241;-58
2023/04/11 06:43:42;;;;;;;0.53;0.53;;;;;;;11.90;92.00;98893.66;5017520;28;20205;-59
2023/04/11 06:46:10;;;;;;;0.97;0.97;;;;;;;11.92;90.57;98885.88;5016986;28;20206;-58
2023/04/11 06:48:37;;;;;;;0.43;0.43;;;;;;;11.92;89.04;98891.03;5022217;28;20712;-58
2023/04/11 06:51:07;;;;;;;0.60;0.60;;;;;;;11.94;88.00;98894.34;5018900;28;20197;-58
2023/04/11 06:53:34;;;;;;;0.60;0.60;;;;;;;11.97;88.20;98899.34;5022320;28;20202;-59
2023/04/11 06:56:01;;;;;;;2.00;2.00;;;;;;;11.99;86.71;98882.97;5025213;28;20256;-59
2023/04/11 06:58:28;;;;;;;0.80;0.80;;;;;;;12.04;87.24;98885.34;5020613;28;20620;-59
2023/04/11 07:00:55;;;;;;;0.60;0.60;;;;;;;12.05;87.01;98877.56;5022818;28;20964;-58
2023/04/11 07:03:23;;;;;;;0.40;0.40;;;;;;;11.99;85.83;98877.81;5018433;28;20237;-59
2023/04/11 07:05:50;;;;;;;0.33;0.33;;;;;;;12.05;85.89;98881.88;5023428;28;20617;-59
2023/04/11 07:08:19;;;;;;;1.70;0.77;;;;;;;12.10;87.08;98885.06;5021572;28;20210;-58
2023/04/11 07:10:46;;;;;;;0.50;0.50;;;;;;;12.06;87.08;98894.63;5025802;28;20208;-59
2023/04/11 07:13:12;;;;;;;0.63;0.63;;;;;;;12.12;89.04;98888.38;5023073;28;20261;-59
2023/04/11 07:15:39;;;;;;;0.40;0.40;;;;;;;12.18;89.17;98888.09;5020911;28;20631;-58
2023/04/11 07:18:06;;;;;;;0.43;0.43;;;;;;;12.25;88.95;98886.09;5024028;28;20700;-58
2023/04/11 07:20:34;;;;;;;0.50;0.50;;;;;;;12.24;87.83;98893.00;5024857;28;20246;-58
2023/04/11 07:23:01;;;;;;;0.70;0.70;;;;;;;12.36;88.27;98886.47;5025298;28;20566;-58
2023/04/11 07:25:32;;;;;;;0.77;0.77;;;;;;;12.44;87.62;98897.25;5021893;28;20226;-59
2023/04/11 07:27:59;;;;;;;0.50;0.50;;;;;;;12.49;87.22;98897.84;5019973;28;20708;-59
2023/04/11 07:30:26;;;;;;;0.50;0.50;;;;;;;12.49;87.04;98888.41;5022478;28;20201;-59
2023/04/11 07:32:53;;;;;;;0.97;0.77;;;;;;;12.59;86.69;98881.94;5021911;28;20220;-59
2023/04/11 07:35:20;;;;;;;0.70;0.70;;;;;;;12.64;86.23;98894.56;5027235;28;20209;-59
2023/04/11 07:37:47;;;;;;;0.63;0.63;;;;;;;12.69;86.79;98889.22;5028276;28;20635;-59
2023/04/11 07:40:14;;;;;;;0.60;0.60;;;;;;;12.72;84.83;98881.34;5025688;28;20284;-58
2023/04/11 07:42:42;;;;;;;0.50;0.50;;;;;;;12.83;84.53;98891.97;5024737;28;20302;-58
2023/04/11 07:45:09;;;;;;;0.50;0.50;;;;;;;12.86;84.30;98881.56;5021093;28;20202;-58
2023/04/11 07:47:36;;;;;;;1.43;1.43;;;;;;;12.82;84.01;98885.16;5021673;28;20221;-59
2023/04/11 07:50:03;;;;;;;0.50;0.50;;;;;;;12.87;84.31;98885.78;5022152;28;20285;-59
2023/04/11 07:52:30;;;;;;;1.57;1.47;;;;;;;12.90;83.17;98872.75;5025731;28;20661;-59
2023/04/11 07:54:57;;;;;;;0.45;0.45;;;;;;;12.92;83.09;98876.94;5027549;28;20096;-61
2023/04/11 07:57:23;;;;;;;0.95;0.95;;;;;;;12.98;81.80;98870.66;5014041;28;20894;-61
2023/04/11 07:59:52;;;;;;;0.40;0.40;;;;;;;13.19;82.48;98869.66;5028846;28;20739;-62
2023/04/11 08:02:18;;;;;;;1.30;1.30;;;;;;;13.29;82.06;98870.88;5022820;28;20222;-61
2023/04/11 08:04:45;;;;;;;1.40;1.13;;;;;;;13.24;81.43;98865.13;5030343;28;20233;-61
2023/04/11 08:07:12;;;;;;;0.60;0.60;;;;;;;13.22;82.29;98864.34;5031493;28;20201;-61
2023/04/11 08:09:41;;;;;;;0.67;0.67;;;;;;;13.34;82.12;98866.34;5032617;28;20224;-61
2023/04/11 08:12:08;;;;;;;0.50;0.50;;;;;;;13.37;82.00;98868.75;5031793;28;20289;-61
2023/04/11 08:14:35;;;;;;;0.80;0.80;;;;;;;13.36;80.29;98855.94;5032065;28;20201;-60
2023/04/11 08:17:03;;;;;;;0.47;0.47;;;;;;;13.30;81.02;98845.97;5032298;28;20205;-61
2023/04/11 08:19:31;;;;;;;0.80;0.80;;;;;;;13.44;81.31;98849.50;5031396;28;20678;-61
2023/04/11 08:21:57;;;;;;;0.60;0.60;;;;;;;13.38;80.98;98860.09;5032793;28;20221;-61
2023/04/11 08:24:24;;;;;;;0.53;0.53;;;;;;;13.45;79.94;98870.94;5032778;28;20205;-61
2023/04/11 08:26:51;;;;;;;0.57;0.57;;;;;;;13.35;79.02;98849.13;5033032;28;20585;-61
2023/04/11 08:29:18;;;;;;;0.50;0.50;;;;;;;13.44;79.64;98854.63;5032182;28;20231;-60
2023/04/11 08:31:45;;;;;;;0.40;0.40;;;;;;;13.51;80.33;98850.00;5033097;28;20605;-61
2023/04/11 08:34:13;;;;;;;0.53;0.53;;;;;;;13.51;79.96;98850.00;5032812;28;20236;-60
2023/04/11 08:36:40;;;;;;;0.67;0.67;;;;;;;13.53;80.20;98853.38;5032949;28;20205;-60
2023/04/11 08:39:07;;;;;;;0.53;0.53;;;;;;;13.55;79.43;98852.38;5031952;28;20221;-62
2023/04/11 08:41:35;;;;;;;1.33;1.33;;;;;;;13.55;79.52;98842.06;5032433;28;20303;-61
2023/04/11 08:44:02;;;;;;;0.50;0.50;;;;;;;13.47;78.31;98827.94;5032373;28;20201;-61
2023/04/11 08:46:32;;;;;;;0.63;0.63;;;;;;;13.53;79.19;98838.75;5032769;28;20252;-61
2023/04/11 08:48:59;;;;;;;0.60;0.60;;;;;;;13.54;79.83;98824.94;5032752;28;20692;-61
2023/04/11 08:51:27;;;;;;;0.50;0.50;;;;;;;13.48;78.81;98824.41;5032690;28;20220;-61
2023/04/11 08:53:56;;;;;;;0.57;0.57;;;;;;;13.37;78.98;98825.00;5032595;28;20206;-61
2023/04/11 08:56:23;;;;;;;0.67;0.67;;;;;;;13.31;78.11;98833.00;5032579;28;20297;-61
2023/04/11 08:58:50;;;;;;;0.70;0.70;;;;;;;13.35;79.21;98821.63;5032852;28;20202;-61
2023/04/11 09:01:31;;;;;;;0.53;0.53;;;;;;;13.35;78.27;98813.91;5032277;28;20217;-61
2023/04/11 09:03:58;;;;;;;0.80;0.80;;;;;;;13.27;78.54;98810.06;5032245;28;20229;-61
2023/04/11 09:06:29;;;;;;;0.80;0.80;;;;;;;13.19;79.14;98800.16;5032589;28;20196;-61
2023/04/11 09:08:57;;;;;;;0.40;0.40;;;;;;;13.32;78.84;98814.06;5032731;28;20224;-61
2023/04/11 09:11:24;;;;;;;0.50;0.50;;;;;;;13.34;79.26;98812.28;5032517;28;20197;-61
2023/04/11 09:14:06;;;;;;;0.40;0.40;;;;;;;13.35;79.54;98788.16;5032412;28;20962;-62
2023/04/11 09:16:33;;;;;;;0.60;0.60;;;;;;;13.53;78.74;98794.97;5032356;28;20745;-62
2023/04/11 09:19:00;;;;;;;0.80;0.80;;;;;;;13.55;79.04;98794.88;5032136;28;20193;-61
2023/04/11 09:21:28;;;;;;;0.80;0.80;;;;;;;13.56;78.30;98792.25;5031926;28;20214;-61
2023/04/11 09:24:13;;;;;;;0.60;0.60;;;;;;;13.63;78.28;98788.41;5031784;28;20193;-61
2023/04/11 09:26:40;;;;;;;0.60;0.60;;;;;;;13.68;79.05;98791.59;5031748;28;20205;-61
2023/04/11 09:29:06;;;;;;;0.60;0.60;;;;;;;13.83;78.61;98783.97;5032172;28;20201;-61
2023/04/11 09:31:44;;;;;;;0.70;0.70;;;;;;;13.91;78.96;98787.81;5032079;28;20197;-61
2023/04/11 09:34:11;;;;;;;0.70;0.70;;;;;;;14.06;77.87;98771.50;5032136;28;20227;-61
2023/04/11 09:36:41;;;;;;;0.40;0.40;;;;;;;14.13;76.11;98777.16;5032316;28;20195;-61
2023/04/11 09:39:17;;;;;;;0.40;0.40;;;;;;;14.07;75.58;98767.19;5030933;28;20229;-62
2023/04/11 09:41:44;;;;;;;0.60;0.60;;;;;;;14.15;75.20;98772.78;5031626;28;20872;-61
2023/04/11 09:44:11;;;;;;;0.40;0.40;;;;;;;14.30;76.25;98763.34;5029830;28;20447;-58
2023/04/11 09:46:56;;;;;;;0.50;0.50;;;;;;;14.51;73.22;98760.44;5030344;28;20198;-59
2023/04/11 09:49:23;;;;;;;0.70;0.70;;;;;;;14.67;72.69;98758.66;5030716;28;20205;-58
2023/04/11 09:51:53;;;;;;;0.50;0.50;;;;;;;14.79;72.20;98761.47;5030742;28;20206;-59
2023/04/11 09:54:22;;;;;;;0.77;0.77;;;;;;;14.91;72.20;98761.59;5031030;28;20585;-58
2023/04/11 09:56:49;;;;;;;0.97;0.97;;;;;;;15.00;72.04;98755.03;5030661;28;20300;-59
2023/04/11 09:59:16;;;;;;;0.70;0.70;;;;;;;15.10;69.83;98745.84;5030935;28;20208;-58
2023/04/11 10:01:43;;;;;;;0.50;0.50;;;;;;;15.14;66.92;98752.50;5030756;28;20588;-59
2023/04/11 10:04:10;;;;;;;0.40;0.40;;;;;;;15.19;66.34;98755.63;5020458;28;20240;-60
2023/04/11 10:06:43;;;;;;;0.60;0.60;;;;;;;15.36;68.88;98758.06;5024132;28;20645;-59
2023/04/11 10:09:13;;;;;;;0.80;0.80;;;;;;;15.38;66.85;98748.44;5016993;28;20202;-58
2023/04/11 10:11:42;;;;;;;0.73;0.73;;;;;;;15.45;66.90;98746.31;5021795;28;20213;-59
2023/04/11 10:14:09;;;;;;;0.50;0.50;;;;;;;15.49;66.91;98746.09;5025135;28;20286;-59
2023/04/11 10:16:37;;;;;;;0.40;0.40;;;;;;;15.54;65.73;98744.03;5023464;28;20209;-59
2023/04/11 10:19:27;;;;;;;0.37;0.37;;;;;;;15.60;66.34;98741.13;5026412;28;20278;-59
2023/04/11 10:21:54;;;;;;;0.60;0.60;;;;;;;15.70;65.01;98742.19;5006058;28;20630;-59
2023/04/11 10:24:25;;;;;;;0.70;0.70;;;;;;;15.70;65.00;98744.78;5024312;28;20597;-58
2023/04/11 10:26:53;;;;;;;0.60;0.60;;;;;;;15.77;65.28;98734.09;5025986;28;20222;-59
2023/04/11 10:29:45;;;;;;;0.40;0.40;;;;;;;15.82;64.06;98739.78;5018376;28;20696;-59
2023/04/11 10:32:13;;;;;;;0.60;0.60;;;;;;;15.94;64.73;98729.50;5023960;28;20212;-59
2023/04/11 10:35:00;;;;;;;0.50;0.50;;;;;;;15.98;63.37;98727.56;5024376;28;20197;-59
2023/04/11 10:37:32;;;;;;;0.70;0.70;;;;;;;16.06;61.98;98723.56;5021856;28;20197;-58
2023/04/11 10:40:09;;;;;;;0.87;0.87;;;;;;;16.06;61.63;98699.47;5015887;28;20296;-59
2023/04/11 10:42:39;;;;;;;0.70;0.70;;;;;;;16.19;60.81;98705.50;5014567;28;20320;-59
2023/04/11 10:45:17;;;;;;;0.80;0.80;;;;;;;16.35;62.04;98716.53;5018223;28;20208;-59
2023/04/11 10:47:44;;;;;;;1.37;1.27;;;;;;;16.40;61.83;98709.31;5024226;28;20208;-60
2023/04/11 10:50:32;;;;;;;0.60;0.60;;;;;;;16.40;60.86;98696.38;5018764;28;20208;-59
2023/04/11 10:53:02;;;;;;;0.40;0.40;;;;;;;16.32;59.05;98675.34;5011341;28;20527;-59
2023/04/11 10:55:34;;;;;;;0.40;0.40;;;;;;;16.39;59.71;98699.91;5017890;28;20237;-59
2023/04/11 10:58:05;;;;;;;0.50;0.50;;;;;;;16.37;59.71;98690.59;5026422;28;20608;-59
2023/04/11 11:01:05;;;;;;;0.50;0.50;;;;;;;16.52;58.86;98684.41;5019593;28;20201;-60
2023/04/11 11:03:33;;;;;;;0.60;0.60;;;;;;;16.49;59.71;98682.84;5023128;28;20233;-59
2023/04/11 11:06:01;;;;;;;1.07;1.07;;;;;;;16.47;59.62;98676.97;5026266;28;20216;-59
2023/04/11 11:08:29;;;;;;;0.40;0.40;;;;;;;16.49;55.81;98684.59;5025818;28;20206;-60
2023/04/11 11:11:00;;;;;;;0.70;0.70;;;;;;;16.47;58.56;98684.72;5016728;28;20337;-59
2023/04/11 11:13:38;;;;;;;0.57;0.57;;;;;;;16.32;56.47;98665.00;5025137;28;20247;-59
2023/04/11 11:16:06;;;;;;;0.60;0.60;;;;;;;16.36;56.35;98657.88;5024409;28;20204;-59
2023/04/11 11:18:33;;;;;;;0.83;0.67;;;;;;;16.43;56.94;98659.97;5020926;28;20559;-59
2023/04/11 11:21:00;;;;;;;0.97;0.97;;;;;;;16.41;56.70;98651.50;5027252;28;20206;-59
2023/04/11 11:23:27;;;;;;;0.70;0.70;;;;;;;16.34;53.94;98655.41;5018696;28;20218;-60
2023/04/11 11:25:55;;;;;;;0.67;0.67;;;;;;;16.45;53.04;98662.44;5022261;28;20210;-59
2023/04/11 11:28:23;;;;;;;0.70;0.70;;;;;;;16.44;55.20;98642.69;5021554;28;20205;-59
2023/04/11 11:30:51;;;;;;;0.50;0.50;;;;;;;16.47;53.73;98651.09;5020082;28;20566;-59
2023/04/11 11:33:19;;;;;;;0.53;0.53;;;;;;;16.59;55.25;98637.38;5021428;28;20230;-59
2023/04/11 11:35:52;;;;;;;0.40;0.40;;;;;;;16.76;53.98;98642.25;5024242;28;20725;-59
2023/04/11 11:38:20;;;;;;;0.50;0.50;;;;;;;16.73;52.93;98637.28;5020733;28;20237;-60